sensor_id;sensor_type;location;lat;lon;timestamp;P1;durP1;ratioP1;P2;durP2;ratioP2
24407;SDS011;12542;50.924;4.516;2023-03-18T00:00:40;18.25;;;7.65;;
24407;SDS011;12542;50.924;4.516;2023-03-18T00:03:07;17.40;;;7.38;;
24407;SDS011;12542;50.924;4.516;2023-03-18T00:05:34;23.33;;;7.72;;
24407;SDS011;12542;50.924;4.516;2023-03-18T00:08:01;29.33;;;8.70;;
24407;SDS011;12542;50.924;4.516;2023-03-18T00:10:28;20.55;;;8.80;;
24407;SDS011;12542;50.924;4.516;2023-03-18T00:12:54;18.45;;;8.52;;
24407;SDS011;12542;50.924;4.516;2023-03-18T00:15:20;18.38;;;8.90;;
24407;SDS011;12542;50.924;4.516;2023-03-18T00:17:47;25.05;;;9.50;;
24407;SDS011;12542;50.924;4.516;2023-03-18T00:20:13;19.98;;;8.68;;
24407;SDS011;12542;50.924;4.516;2023-03-18T00:22:52;18.35;;;8.20;;
24407;SDS011;12542;50.924;4.516;2023-03-18T00:25:21;16.23;;;8.40;;
24407;SDS011;12542;50.924;4.516;2023-03-18T00:27:47;18.27;;;8.38;;
24407;SDS011;12542;50.924;4.516;2023-03-18T00:30:14;19.98;;;9.75;;
24407;SDS011;12542;50.924;4.516;2023-03-18T00:32:39;20.35;;;9.38;;
24407;SDS011;12542;50.924;4.516;2023-03-18T00:35:05;20.05;;;8.35;;
24407;SDS011;12542;50.924;4.516;2023-03-18T00:37:31;20.35;;;9.65;;
24407;SDS011;12542;50.924;4.516;2023-03-18T00:40:00;24.13;;;9.93;;
24407;SDS011;12542;50.924;4.516;2023-03-18T00:42:34;19.60;;;9.90;;
24407;SDS011;12542;50.924;4.516;2023-03-18T00:45:06;22.33;;;9.48;;
24407;SDS011;12542;50.924;4.516;2023-03-18T00:47:35;19.92;;;10.32;;
24407;SDS011;12542;50.924;4.516;2023-03-18T00:50:05;19.90;;;9.50;;
24407;SDS011;12542;50.924;4.516;2023-03-18T00:52:32;17.10;;;10.68;;
24407;SDS011;12542;50.924;4.516;2023-03-18T00:54:58;23.83;;;10.43;;
24407;SDS011;12542;50.924;4.516;2023-03-18T00:57:25;19.88;;;9.98;;
24407;SDS011;12542;50.924;4.516;2023-03-18T00:59:52;24.38;;;11.52;;
24407;SDS011;12542;50.924;4.516;2023-03-18T01:02:17;23.33;;;11.20;;
24407;SDS011;12542;50.924;4.516;2023-03-18T01:04:43;23.65;;;11.48;;
24407;SDS011;12542;50.924;4.516;2023-03-18T01:07:09;21.95;;;11.20;;
24407;SDS011;12542;50.924;4.516;2023-03-18T01:09:36;21.00;;;11.50;;
24407;SDS011;12542;50.924;4.516;2023-03-18T01:12:05;27.00;;;11.65;;
24407;SDS011;12542;50.924;4.516;2023-03-18T01:14:33;23.40;;;11.93;;
24407;SDS011;12542;50.924;4.516;2023-03-18T01:17:00;26.23;;;11.07;;
24407;SDS011;12542;50.924;4.516;2023-03-18T01:19:27;19.05;;;10.75;;
24407;SDS011;12542;50.924;4.516;2023-03-18T01:21:53;25.92;;;12.05;;
24407;SDS011;12542;50.924;4.516;2023-03-18T01:24:21;26.58;;;11.85;;
24407;SDS011;12542;50.924;4.516;2023-03-18T01:26:47;26.95;;;12.05;;
24407;SDS011;12542;50.924;4.516;2023-03-18T01:29:13;20.73;;;11.75;;
24407;SDS011;12542;50.924;4.516;2023-03-18T01:31:40;31.80;;;12.27;;
24407;SDS011;12542;50.924;4.516;2023-03-18T01:34:08;24.75;;;12.13;;
24407;SDS011;12542;50.924;4.516;2023-03-18T01:36:36;26.45;;;12.40;;
24407;SDS011;12542;50.924;4.516;2023-03-18T01:39:02;19.63;;;10.95;;
24407;SDS011;12542;50.924;4.516;2023-03-18T01:41:27;22.83;;;11.60;;
24407;SDS011;12542;50.924;4.516;2023-03-18T01:43:54;23.63;;;11.90;;
24407;SDS011;12542;50.924;4.516;2023-03-18T01:46:34;32.67;;;12.48;;
24407;SDS011;12542;50.924;4.516;2023-03-18T01:49:05;24.10;;;11.40;;
24407;SDS011;12542;50.924;4.516;2023-03-18T01:51:37;25.73;;;12.38;;
24407;SDS011;12542;50.924;4.516;2023-03-18T01:54:05;23.08;;;11.68;;
24407;SDS011;12542;50.924;4.516;2023-03-18T01:56:32;26.77;;;12.20;;
24407;SDS011;12542;50.924;4.516;2023-03-18T01:59:01;24.30;;;11.88;;
24407;SDS011;12542;50.924;4.516;2023-03-18T02:01:30;24.33;;;12.05;;
24407;SDS011;12542;50.924;4.516;2023-03-18T02:04:10;28.20;;;11.43;;
24407;SDS011;12542;50.924;4.516;2023-03-18T02:06:37;24.10;;;11.57;;
24407;SDS011;12542;50.924;4.516;2023-03-18T02:09:03;23.50;;;12.48;;
24407;SDS011;12542;50.924;4.516;2023-03-18T02:11:34;21.33;;;11.45;;
24407;SDS011;12542;50.924;4.516;2023-03-18T02:14:02;23.35;;;11.48;;
24407;SDS011;12542;50.924;4.516;2023-03-18T02:16:34;21.67;;;11.75;;
24407;SDS011;12542;50.924;4.516;2023-03-18T02:19:12;26.33;;;11.25;;
24407;SDS011;12542;50.924;4.516;2023-03-18T02:21:54;16.25;;;10.90;;
24407;SDS011;12542;50.924;4.516;2023-03-18T02:24:41;21.08;;;11.43;;
24407;SDS011;12542;50.924;4.516;2023-03-18T02:29:43;20.10;;;10.82;;
24407;SDS011;12542;50.924;4.516;2023-03-18T02:32:09;17.90;;;10.70;;
24407;SDS011;12542;50.924;4.516;2023-03-18T02:34:37;18.85;;;11.27;;
24407;SDS011;12542;50.924;4.516;2023-03-18T02:37:04;22.77;;;10.80;;
24407;SDS011;12542;50.924;4.516;2023-03-18T02:39:34;20.17;;;11.60;;
24407;SDS011;12542;50.924;4.516;2023-03-18T02:42:01;22.58;;;11.20;;
24407;SDS011;12542;50.924;4.516;2023-03-18T02:44:28;21.08;;;11.63;;
24407;SDS011;12542;50.924;4.516;2023-03-18T02:47:05;20.02;;;11.45;;
24407;SDS011;12542;50.924;4.516;2023-03-18T02:49:35;20.42;;;11.88;;
24407;SDS011;12542;50.924;4.516;2023-03-18T02:52:01;23.40;;;12.15;;
24407;SDS011;12542;50.924;4.516;2023-03-18T02:54:28;23.00;;;11.85;;
24407;SDS011;12542;50.924;4.516;2023-03-18T02:56:56;21.77;;;12.35;;
24407;SDS011;12542;50.924;4.516;2023-03-18T02:59:22;22.02;;;11.73;;
24407;SDS011;12542;50.924;4.516;2023-03-18T03:01:49;23.55;;;11.75;;
24407;SDS011;12542;50.924;4.516;2023-03-18T03:04:17;21.90;;;11.65;;
24407;SDS011;12542;50.924;4.516;2023-03-18T03:06:43;22.38;;;11.63;;
24407;SDS011;12542;50.924;4.516;2023-03-18T03:09:11;20.67;;;10.90;;
24407;SDS011;12542;50.924;4.516;2023-03-18T03:11:39;20.23;;;11.18;;
24407;SDS011;12542;50.924;4.516;2023-03-18T03:14:06;20.10;;;11.40;;
24407;SDS011;12542;50.924;4.516;2023-03-18T03:16:33;17.40;;;9.93;;
24407;SDS011;12542;50.924;4.516;2023-03-18T03:19:02;21.85;;;10.13;;
24407;SDS011;12542;50.924;4.516;2023-03-18T03:21:30;14.68;;;9.57;;
24407;SDS011;12542;50.924;4.516;2023-03-18T03:24:00;16.77;;;9.90;;
24407;SDS011;12542;50.924;4.516;2023-03-18T03:26:30;16.60;;;9.88;;
24407;SDS011;12542;50.924;4.516;2023-03-18T03:28:56;16.50;;;9.32;;
24407;SDS011;12542;50.924;4.516;2023-03-18T03:31:22;17.80;;;9.77;;
24407;SDS011;12542;50.924;4.516;2023-03-18T03:33:48;18.50;;;9.85;;
24407;SDS011;12542;50.924;4.516;2023-03-18T03:36:15;18.08;;;9.98;;
24407;SDS011;12542;50.924;4.516;2023-03-18T03:38:41;17.35;;;9.48;;
24407;SDS011;12542;50.924;4.516;2023-03-18T03:41:08;16.65;;;9.40;;
24407;SDS011;12542;50.924;4.516;2023-03-18T03:43:36;22.15;;;9.90;;
24407;SDS011;12542;50.924;4.516;2023-03-18T03:46:03;13.82;;;8.48;;
24407;SDS011;12542;50.924;4.516;2023-03-18T03:48:29;19.23;;;9.40;;
24407;SDS011;12542;50.924;4.516;2023-03-18T03:50:55;23.63;;;10.85;;
24407;SDS011;12542;50.924;4.516;2023-03-18T03:53:21;16.63;;;8.73;;
24407;SDS011;12542;50.924;4.516;2023-03-18T03:55:49;16.67;;;8.85;;
24407;SDS011;12542;50.924;4.516;2023-03-18T03:58:15;18.23;;;9.27;;
24407;SDS011;12542;50.924;4.516;2023-03-18T04:00:41;17.65;;;8.68;;
24407;SDS011;12542;50.924;4.516;2023-03-18T04:03:07;14.20;;;9.00;;
24407;SDS011;12542;50.924;4.516;2023-03-18T04:05:33;18.73;;;10.20;;
24407;SDS011;12542;50.924;4.516;2023-03-18T04:07:59;19.60;;;9.85;;
24407;SDS011;12542;50.924;4.516;2023-03-18T04:10:25;19.10;;;9.65;;
24407;SDS011;12542;50.924;4.516;2023-03-18T04:12:52;19.88;;;9.32;;
24407;SDS011;12542;50.924;4.516;2023-03-18T04:15:19;19.75;;;9.43;;
24407;SDS011;12542;50.924;4.516;2023-03-18T04:17:46;18.23;;;10.63;;
24407;SDS011;12542;50.924;4.516;2023-03-18T04:20:15;16.50;;;9.55;;
24407;SDS011;12542;50.924;4.516;2023-03-18T04:22:42;18.02;;;8.73;;
24407;SDS011;12542;50.924;4.516;2023-03-18T04:25:09;19.92;;;9.82;;
24407;SDS011;12542;50.924;4.516;2023-03-18T04:27:37;19.77;;;9.82;;
24407;SDS011;12542;50.924;4.516;2023-03-18T04:30:06;18.27;;;8.88;;
24407;SDS011;12542;50.924;4.516;2023-03-18T04:32:33;20.55;;;10.32;;
24407;SDS011;12542;50.924;4.516;2023-03-18T04:34:59;17.35;;;9.80;;
24407;SDS011;12542;50.924;4.516;2023-03-18T04:37:25;18.73;;;10.23;;
24407;SDS011;12542;50.924;4.516;2023-03-18T04:39:51;21.70;;;10.20;;
24407;SDS011;12542;50.924;4.516;2023-03-18T04:42:16;19.27;;;10.52;;
24407;SDS011;12542;50.924;4.516;2023-03-18T04:44:42;18.55;;;10.18;;
24407;SDS011;12542;50.924;4.516;2023-03-18T04:47:09;23.63;;;10.80;;
24407;SDS011;12542;50.924;4.516;2023-03-18T04:49:35;23.85;;;11.20;;
24407;SDS011;12542;50.924;4.516;2023-03-18T04:52:02;18.27;;;10.57;;
24407;SDS011;12542;50.924;4.516;2023-03-18T04:54:28;18.05;;;10.90;;
24407;SDS011;12542;50.924;4.516;2023-03-18T04:56:54;19.35;;;10.38;;
24407;SDS011;12542;50.924;4.516;2023-03-18T04:59:20;19.27;;;10.23;;
24407;SDS011;12542;50.924;4.516;2023-03-18T05:01:48;18.15;;;9.55;;
24407;SDS011;12542;50.924;4.516;2023-03-18T05:04:13;17.85;;;9.60;;
24407;SDS011;12542;50.924;4.516;2023-03-18T05:06:39;17.60;;;10.73;;
24407;SDS011;12542;50.924;4.516;2023-03-18T05:09:06;19.98;;;9.95;;
24407;SDS011;12542;50.924;4.516;2023-03-18T05:11:34;21.98;;;11.30;;
24407;SDS011;12542;50.924;4.516;2023-03-18T05:14:00;22.17;;;10.73;;
24407;SDS011;12542;50.924;4.516;2023-03-18T05:16:26;21.88;;;11.35;;
24407;SDS011;12542;50.924;4.516;2023-03-18T05:18:54;20.65;;;11.32;;
24407;SDS011;12542;50.924;4.516;2023-03-18T05:21:19;20.10;;;10.52;;
24407;SDS011;12542;50.924;4.516;2023-03-18T05:23:45;22.10;;;10.13;;
24407;SDS011;12542;50.924;4.516;2023-03-18T05:26:13;19.65;;;11.18;;
24407;SDS011;12542;50.924;4.516;2023-03-18T05:28:41;21.85;;;11.10;;
24407;SDS011;12542;50.924;4.516;2023-03-18T05:31:07;19.85;;;11.27;;
24407;SDS011;12542;50.924;4.516;2023-03-18T05:33:32;19.05;;;10.65;;
24407;SDS011;12542;50.924;4.516;2023-03-18T05:36:01;20.98;;;11.38;;
24407;SDS011;12542;50.924;4.516;2023-03-18T05:38:27;20.33;;;10.20;;
24407;SDS011;12542;50.924;4.516;2023-03-18T05:40:53;18.55;;;10.68;;
24407;SDS011;12542;50.924;4.516;2023-03-18T05:43:19;18.92;;;12.20;;
24407;SDS011;12542;50.924;4.516;2023-03-18T05:45:46;19.60;;;11.43;;
24407;SDS011;12542;50.924;4.516;2023-03-18T05:48:12;23.20;;;11.57;;
24407;SDS011;12542;50.924;4.516;2023-03-18T05:50:39;19.90;;;11.38;;
24407;SDS011;12542;50.924;4.516;2023-03-18T05:53:07;19.38;;;10.55;;
24407;SDS011;12542;50.924;4.516;2023-03-18T05:55:34;21.52;;;11.90;;
24407;SDS011;12542;50.924;4.516;2023-03-18T05:58:00;20.38;;;11.57;;
24407;SDS011;12542;50.924;4.516;2023-03-18T06:00:27;16.77;;;10.32;;
24407;SDS011;12542;50.924;4.516;2023-03-18T06:02:54;20.15;;;11.32;;
24407;SDS011;12542;50.924;4.516;2023-03-18T06:05:23;22.08;;;12.75;;
24407;SDS011;12542;50.924;4.516;2023-03-18T06:07:49;20.15;;;11.57;;
24407;SDS011;12542;50.924;4.516;2023-03-18T06:10:18;21.20;;;11.57;;
24407;SDS011;12542;50.924;4.516;2023-03-18T06:12:45;21.90;;;11.73;;
24407;SDS011;12542;50.924;4.516;2023-03-18T06:15:11;20.55;;;11.68;;
24407;SDS011;12542;50.924;4.516;2023-03-18T06:17:38;20.40;;;10.65;;
24407;SDS011;12542;50.924;4.516;2023-03-18T06:20:05;17.88;;;10.73;;
24407;SDS011;12542;50.924;4.516;2023-03-18T06:22:34;14.80;;;9.65;;
24407;SDS011;12542;50.924;4.516;2023-03-18T06:25:01;16.65;;;9.73;;
24407;SDS011;12542;50.924;4.516;2023-03-18T06:27:28;15.07;;;8.98;;
24407;SDS011;12542;50.924;4.516;2023-03-18T06:29:53;13.52;;;8.73;;
24407;SDS011;12542;50.924;4.516;2023-03-18T06:32:20;15.45;;;8.98;;
24407;SDS011;12542;50.924;4.516;2023-03-18T06:34:46;13.07;;;8.95;;
24407;SDS011;12542;50.924;4.516;2023-03-18T06:37:12;14.40;;;8.60;;
24407;SDS011;12542;50.924;4.516;2023-03-18T06:39:39;11.80;;;7.95;;
24407;SDS011;12542;50.924;4.516;2023-03-18T06:42:05;14.73;;;8.73;;
24407;SDS011;12542;50.924;4.516;2023-03-18T06:44:30;14.88;;;9.00;;
24407;SDS011;12542;50.924;4.516;2023-03-18T06:46:56;15.35;;;8.90;;
24407;SDS011;12542;50.924;4.516;2023-03-18T06:49:22;19.02;;;10.18;;
24407;SDS011;12542;50.924;4.516;2023-03-18T06:51:48;17.13;;;9.25;;
24407;SDS011;12542;50.924;4.516;2023-03-18T06:54:13;13.32;;;8.45;;
24407;SDS011;12542;50.924;4.516;2023-03-18T06:56:39;15.93;;;9.05;;
24407;SDS011;12542;50.924;4.516;2023-03-18T06:59:06;15.15;;;9.13;;
24407;SDS011;12542;50.924;4.516;2023-03-18T07:01:33;16.70;;;9.30;;
24407;SDS011;12542;50.924;4.516;2023-03-18T07:04:01;14.38;;;8.52;;
24407;SDS011;12542;50.924;4.516;2023-03-18T07:06:27;13.88;;;8.40;;
24407;SDS011;12542;50.924;4.516;2023-03-18T07:08:54;15.10;;;8.23;;
24407;SDS011;12542;50.924;4.516;2023-03-18T07:11:20;11.18;;;7.13;;
24407;SDS011;12542;50.924;4.516;2023-03-18T07:13:46;12.90;;;7.35;;
24407;SDS011;12542;50.924;4.516;2023-03-18T07:16:12;13.60;;;6.95;;
24407;SDS011;12542;50.924;4.516;2023-03-18T07:18:38;10.75;;;6.90;;
24407;SDS011;12542;50.924;4.516;2023-03-18T07:21:04;8.50;;;5.75;;
24407;SDS011;12542;50.924;4.516;2023-03-18T07:23:30;12.35;;;6.60;;
24407;SDS011;12542;50.924;4.516;2023-03-18T07:25:57;12.52;;;6.88;;
24407;SDS011;12542;50.924;4.516;2023-03-18T07:28:23;12.05;;;7.03;;
24407;SDS011;12542;50.924;4.516;2023-03-18T07:30:48;10.45;;;6.13;;
24407;SDS011;12542;50.924;4.516;2023-03-18T07:33:17;9.80;;;5.35;;
24407;SDS011;12542;50.924;4.516;2023-03-18T07:35:44;10.85;;;5.70;;
24407;SDS011;12542;50.924;4.516;2023-03-18T07:38:10;9.70;;;5.63;;
24407;SDS011;12542;50.924;4.516;2023-03-18T07:40:39;8.45;;;5.63;;
24407;SDS011;12542;50.924;4.516;2023-03-18T07:43:05;8.88;;;5.53;;
24407;SDS011;12542;50.924;4.516;2023-03-18T07:45:31;9.82;;;6.38;;
24407;SDS011;12542;50.924;4.516;2023-03-18T07:48:00;9.68;;;6.25;;
24407;SDS011;12542;50.924;4.516;2023-03-18T07:50:26;10.10;;;5.53;;
24407;SDS011;12542;50.924;4.516;2023-03-18T07:52:52;9.02;;;6.35;;
24407;SDS011;12542;50.924;4.516;2023-03-18T07:55:18;9.88;;;5.47;;
24407;SDS011;12542;50.924;4.516;2023-03-18T07:57:44;9.30;;;6.45;;
24407;SDS011;12542;50.924;4.516;2023-03-18T08:00:10;9.10;;;5.93;;
24407;SDS011;12542;50.924;4.516;2023-03-18T08:02:37;10.50;;;6.25;;
24407;SDS011;12542;50.924;4.516;2023-03-18T08:05:03;9.98;;;5.95;;
24407;SDS011;12542;50.924;4.516;2023-03-18T08:07:31;8.95;;;5.47;;
24407;SDS011;12542;50.924;4.516;2023-03-18T08:09:57;11.25;;;6.72;;
24407;SDS011;12542;50.924;4.516;2023-03-18T08:12:23;10.07;;;6.38;;
24407;SDS011;12542;50.924;4.516;2023-03-18T08:14:49;9.13;;;6.00;;
24407;SDS011;12542;50.924;4.516;2023-03-18T08:17:16;10.90;;;5.28;;
24407;SDS011;12542;50.924;4.516;2023-03-18T08:19:42;8.43;;;5.05;;
24407;SDS011;12542;50.924;4.516;2023-03-18T08:22:08;8.45;;;4.80;;
24407;SDS011;12542;50.924;4.516;2023-03-18T08:24:35;11.30;;;6.18;;
24407;SDS011;12542;50.924;4.516;2023-03-18T08:27:02;8.88;;;5.25;;
24407;SDS011;12542;50.924;4.516;2023-03-18T08:29:28;9.25;;;5.13;;
24407;SDS011;12542;50.924;4.516;2023-03-18T08:31:57;11.27;;;5.35;;
24407;SDS011;12542;50.924;4.516;2023-03-18T08:34:23;7.97;;;4.82;;
24407;SDS011;12542;50.924;4.516;2023-03-18T08:36:49;8.00;;;4.88;;
24407;SDS011;12542;50.924;4.516;2023-03-18T08:39:15;7.88;;;4.50;;
24407;SDS011;12542;50.924;4.516;2023-03-18T08:41:41;10.38;;;7.22;;
24407;SDS011;12542;50.924;4.516;2023-03-18T08:44:06;10.82;;;5.78;;
24407;SDS011;12542;50.924;4.516;2023-03-18T08:46:37;6.65;;;4.55;;
24407;SDS011;12542;50.924;4.516;2023-03-18T08:49:04;76.80;;;40.80;;
24407;SDS011;12542;50.924;4.516;2023-03-18T08:51:30;10.02;;;4.80;;
24407;SDS011;12542;50.924;4.516;2023-03-18T08:53:56;10.05;;;4.40;;
24407;SDS011;12542;50.924;4.516;2023-03-18T08:56:23;13.38;;;5.40;;
24407;SDS011;12542;50.924;4.516;2023-03-18T08:58:49;8.38;;;4.22;;
24407;SDS011;12542;50.924;4.516;2023-03-18T09:01:15;6.88;;;3.53;;
24407;SDS011;12542;50.924;4.516;2023-03-18T09:03:41;6.90;;;3.90;;
24407;SDS011;12542;50.924;4.516;2023-03-18T09:06:08;6.03;;;3.67;;
24407;SDS011;12542;50.924;4.516;2023-03-18T09:08:34;7.00;;;3.60;;
24407;SDS011;12542;50.924;4.516;2023-03-18T09:11:00;6.70;;;4.13;;
24407;SDS011;12542;50.924;4.516;2023-03-18T09:13:26;7.88;;;4.20;;
24407;SDS011;12542;50.924;4.516;2023-03-18T09:15:52;6.78;;;3.50;;
24407;SDS011;12542;50.924;4.516;2023-03-18T09:18:18;8.32;;;4.35;;
24407;SDS011;12542;50.924;4.516;2023-03-18T09:20:47;8.38;;;4.47;;
24407;SDS011;12542;50.924;4.516;2023-03-18T09:23:13;9.70;;;5.55;;
24407;SDS011;12542;50.924;4.516;2023-03-18T09:25:40;9.52;;;4.40;;
24407;SDS011;12542;50.924;4.516;2023-03-18T09:28:06;8.52;;;4.40;;
24407;SDS011;12542;50.924;4.516;2023-03-18T09:30:32;7.80;;;4.05;;
24407;SDS011;12542;50.924;4.516;2023-03-18T09:32:58;6.85;;;4.00;;
24407;SDS011;12542;50.924;4.516;2023-03-18T09:35:24;8.02;;;4.22;;
24407;SDS011;12542;50.924;4.516;2023-03-18T09:37:50;9.38;;;5.10;;
24407;SDS011;12542;50.924;4.516;2023-03-18T09:40:29;9.02;;;3.60;;
24407;SDS011;12542;50.924;4.516;2023-03-18T09:45:41;7.82;;;3.15;;
24407;SDS011;12542;50.924;4.516;2023-03-18T09:56:56;9.57;;;3.20;;
24407;SDS011;12542;50.924;4.516;2023-03-18T10:02:20;8.77;;;5.25;;
24407;SDS011;12542;50.924;4.516;2023-03-18T10:04:57;6.32;;;2.72;;
24407;SDS011;12542;50.924;4.516;2023-03-18T10:07:44;8.90;;;3.95;;
24407;SDS011;12542;50.924;4.516;2023-03-18T10:10:32;7.43;;;3.28;;
24407;SDS011;12542;50.924;4.516;2023-03-18T10:13:04;9.63;;;3.88;;
24407;SDS011;12542;50.924;4.516;2023-03-18T10:18:11;5.22;;;3.05;;
24407;SDS011;12542;50.924;4.516;2023-03-18T10:20:56;5.53;;;2.85;;
24407;SDS011;12542;50.924;4.516;2023-03-18T10:23:25;7.38;;;2.92;;
24407;SDS011;12542;50.924;4.516;2023-03-18T10:31:42;6.18;;;2.67;;
24407;SDS011;12542;50.924;4.516;2023-03-18T10:34:16;6.32;;;2.63;;
24407;SDS011;12542;50.924;4.516;2023-03-18T10:36:49;5.18;;;2.78;;
24407;SDS011;12542;50.924;4.516;2023-03-18T10:39:21;7.32;;;2.60;;
24407;SDS011;12542;50.924;4.516;2023-03-18T10:41:49;7.22;;;2.95;;
24407;SDS011;12542;50.924;4.516;2023-03-18T10:44:19;5.97;;;3.00;;
24407;SDS011;12542;50.924;4.516;2023-03-18T10:52:23;5.43;;;2.63;;
24407;SDS011;12542;50.924;4.516;2023-03-18T10:55:02;6.55;;;2.80;;
24407;SDS011;12542;50.924;4.516;2023-03-18T10:57:38;4.80;;;2.25;;
24407;SDS011;12542;50.924;4.516;2023-03-18T11:00:04;5.82;;;2.92;;
24407;SDS011;12542;50.924;4.516;2023-03-18T11:02:54;5.90;;;2.67;;
24407;SDS011;12542;50.924;4.516;2023-03-18T11:05:22;5.18;;;2.78;;
24407;SDS011;12542;50.924;4.516;2023-03-18T11:08:01;18.00;;;8.93;;
24407;SDS011;12542;50.924;4.516;2023-03-18T11:10:43;5.90;;;2.35;;
24407;SDS011;12542;50.924;4.516;2023-03-18T11:13:15;6.53;;;2.60;;
24407;SDS011;12542;50.924;4.516;2023-03-18T11:15:49;6.28;;;2.67;;
24407;SDS011;12542;50.924;4.516;2023-03-18T11:18:20;5.53;;;2.38;;
24407;SDS011;12542;50.924;4.516;2023-03-18T11:20:55;5.18;;;2.47;;
24407;SDS011;12542;50.924;4.516;2023-03-18T11:23:34;5.60;;;2.17;;
24407;SDS011;12542;50.924;4.516;2023-03-18T11:26:43;6.47;;;2.10;;
24407;SDS011;12542;50.924;4.516;2023-03-18T11:29:10;3.47;;;1.95;;
24407;SDS011;12542;50.924;4.516;2023-03-18T11:31:53;3.70;;;1.95;;
24407;SDS011;12542;50.924;4.516;2023-03-18T11:34:27;3.97;;;1.98;;
24407;SDS011;12542;50.924;4.516;2023-03-18T11:36:59;3.65;;;1.90;;
24407;SDS011;12542;50.924;4.516;2023-03-18T11:39:33;3.30;;;1.83;;
24407;SDS011;12542;50.924;4.516;2023-03-18T11:42:02;4.40;;;1.73;;
24407;SDS011;12542;50.924;4.516;2023-03-18T11:44:41;5.43;;;1.80;;
24407;SDS011;12542;50.924;4.516;2023-03-18T11:49:36;5.22;;;1.40;;
24407;SDS011;12542;50.924;4.516;2023-03-18T11:57:34;1.73;;;0.90;;
24407;SDS011;12542;50.924;4.516;2023-03-18T12:13:52;2.90;;;1.10;;
24407;SDS011;12542;50.924;4.516;2023-03-18T12:19:08;1.83;;;0.95;;
24407;SDS011;12542;50.924;4.516;2023-03-18T12:22:00;2.33;;;1.00;;
24407;SDS011;12542;50.924;4.516;2023-03-18T12:32:49;3.45;;;1.88;;
24407;SDS011;12542;50.924;4.516;2023-03-18T12:52:02;2.80;;;1.15;;
24407;SDS011;12542;50.924;4.516;2023-03-18T12:54:32;3.33;;;0.80;;
24407;SDS011;12542;50.924;4.516;2023-03-18T12:57:25;3.17;;;1.05;;
24407;SDS011;12542;50.924;4.516;2023-03-18T13:05:51;4.78;;;1.30;;
24407;SDS011;12542;50.924;4.516;2023-03-18T13:13:55;3.07;;;1.00;;
24407;SDS011;12542;50.924;4.516;2023-03-18T13:16:27;4.68;;;0.80;;
24407;SDS011;12542;50.924;4.516;2023-03-18T13:18:56;2.97;;;1.02;;
24407;SDS011;12542;50.924;4.516;2023-03-18T13:21:28;2.60;;;1.13;;
24407;SDS011;12542;50.924;4.516;2023-03-18T13:27:07;6.63;;;1.63;;
24407;SDS011;12542;50.924;4.516;2023-03-18T13:38:20;3.83;;;0.60;;
24407;SDS011;12542;50.924;4.516;2023-03-18T13:43:49;3.40;;;0.80;;
24407;SDS011;12542;50.924;4.516;2023-03-18T13:46:21;6.53;;;1.50;;
24407;SDS011;12542;50.924;4.516;2023-03-18T13:48:55;2.83;;;0.70;;
24407;SDS011;12542;50.924;4.516;2023-03-18T13:53:48;4.68;;;0.95;;
24407;SDS011;12542;50.924;4.516;2023-03-18T13:56:51;4.30;;;0.90;;
24407;SDS011;12542;50.924;4.516;2023-03-18T13:59:59;6.43;;;1.02;;
24407;SDS011;12542;50.924;4.516;2023-03-18T14:04:48;3.47;;;0.90;;
24407;SDS011;12542;50.924;4.516;2023-03-18T14:07:16;4.25;;;0.85;;
24407;SDS011;12542;50.924;4.516;2023-03-18T14:09:49;3.58;;;0.93;;
24407;SDS011;12542;50.924;4.516;2023-03-18T14:12:37;3.30;;;0.98;;
24407;SDS011;12542;50.924;4.516;2023-03-18T14:17:40;8.55;;;1.00;;
24407;SDS011;12542;50.924;4.516;2023-03-18T14:22:42;2.88;;;1.25;;
24407;SDS011;12542;50.924;4.516;2023-03-18T14:27:45;6.30;;;1.15;;
24407;SDS011;12542;50.924;4.516;2023-03-18T14:33:00;4.93;;;1.38;;
24407;SDS011;12542;50.924;4.516;2023-03-18T14:35:31;3.53;;;0.77;;
24407;SDS011;12542;50.924;4.516;2023-03-18T14:41:29;4.32;;;0.85;;
24407;SDS011;12542;50.924;4.516;2023-03-18T14:44:42;1.75;;;0.95;;
24407;SDS011;12542;50.924;4.516;2023-03-18T14:47:02;3.97;;;0.85;;
24407;SDS011;12542;50.924;4.516;2023-03-18T14:52:04;5.65;;;1.27;;
24407;SDS011;12542;50.924;4.516;2023-03-18T14:54:47;7.20;;;1.80;;
24407;SDS011;12542;50.924;4.516;2023-03-18T14:57:22;4.88;;;1.00;;
24407;SDS011;12542;50.924;4.516;2023-03-18T14:59:49;4.30;;;1.10;;
24407;SDS011;12542;50.924;4.516;2023-03-18T15:02:34;3.20;;;1.17;;
24407;SDS011;12542;50.924;4.516;2023-03-18T15:05:03;4.05;;;1.10;;
24407;SDS011;12542;50.924;4.516;2023-03-18T15:07:37;6.15;;;1.30;;
24407;SDS011;12542;50.924;4.516;2023-03-18T15:12:37;3.53;;;0.80;;
24407;SDS011;12542;50.924;4.516;2023-03-18T15:15:04;5.43;;;0.80;;
24407;SDS011;12542;50.924;4.516;2023-03-18T15:17:31;3.72;;;0.77;;
24407;SDS011;12542;50.924;4.516;2023-03-18T15:19:57;2.80;;;0.85;;
24407;SDS011;12542;50.924;4.516;2023-03-18T15:22:25;3.80;;;0.68;;
24407;SDS011;12542;50.924;4.516;2023-03-18T15:24:57;6.80;;;0.95;;
24407;SDS011;12542;50.924;4.516;2023-03-18T15:27:25;4.57;;;1.10;;
24407;SDS011;12542;50.924;4.516;2023-03-18T15:29:55;3.28;;;1.05;;
24407;SDS011;12542;50.924;4.516;2023-03-18T15:35:16;1.65;;;0.60;;
24407;SDS011;12542;50.924;4.516;2023-03-18T15:37:58;5.30;;;1.23;;
24407;SDS011;12542;50.924;4.516;2023-03-18T15:45:38;5.20;;;1.00;;
24407;SDS011;12542;50.924;4.516;2023-03-18T15:48:23;1.83;;;0.60;;
24407;SDS011;12542;50.924;4.516;2023-03-18T15:51:01;5.68;;;0.90;;
24407;SDS011;12542;50.924;4.516;2023-03-18T15:53:39;6.40;;;1.38;;
24407;SDS011;12542;50.924;4.516;2023-03-18T15:56:13;6.22;;;1.27;;
24407;SDS011;12542;50.924;4.516;2023-03-18T15:58:44;4.28;;;1.00;;
24407;SDS011;12542;50.924;4.516;2023-03-18T16:01:20;2.85;;;0.82;;
24407;SDS011;12542;50.924;4.516;2023-03-18T16:03:46;3.78;;;0.95;;
24407;SDS011;12542;50.924;4.516;2023-03-18T16:06:12;4.57;;;1.02;;
24407;SDS011;12542;50.924;4.516;2023-03-18T16:08:39;5.15;;;1.10;;
24407;SDS011;12542;50.924;4.516;2023-03-18T16:11:05;5.00;;;0.80;;
24407;SDS011;12542;50.924;4.516;2023-03-18T16:13:33;2.20;;;0.80;;
24407;SDS011;12542;50.924;4.516;2023-03-18T16:16:00;7.97;;;1.80;;
24407;SDS011;12542;50.924;4.516;2023-03-18T16:18:27;6.20;;;1.10;;
24407;SDS011;12542;50.924;4.516;2023-03-18T16:20:53;10.43;;;3.55;;
24407;SDS011;12542;50.924;4.516;2023-03-18T16:23:19;5.10;;;1.00;;
24407;SDS011;12542;50.924;4.516;2023-03-18T16:25:46;12.90;;;1.35;;
24407;SDS011;12542;50.924;4.516;2023-03-18T16:28:18;5.03;;;1.23;;
24407;SDS011;12542;50.924;4.516;2023-03-18T16:30:46;3.33;;;1.10;;
24407;SDS011;12542;50.924;4.516;2023-03-18T16:33:13;6.10;;;1.10;;
24407;SDS011;12542;50.924;4.516;2023-03-18T16:35:41;3.25;;;0.73;;
24407;SDS011;12542;50.924;4.516;2023-03-18T16:38:10;3.42;;;0.63;;
24407;SDS011;12542;50.924;4.516;2023-03-18T16:40:41;3.15;;;1.00;;
24407;SDS011;12542;50.924;4.516;2023-03-18T16:43:20;8.50;;;1.23;;
24407;SDS011;12542;50.924;4.516;2023-03-18T16:45:52;3.42;;;0.98;;
24407;SDS011;12542;50.924;4.516;2023-03-18T16:48:21;5.32;;;1.25;;
24407;SDS011;12542;50.924;4.516;2023-03-18T16:50:48;3.75;;;0.88;;
24407;SDS011;12542;50.924;4.516;2023-03-18T16:55:51;4.05;;;1.02;;
24407;SDS011;12542;50.924;4.516;2023-03-18T16:58:21;5.00;;;1.13;;
24407;SDS011;12542;50.924;4.516;2023-03-18T17:00:59;4.00;;;1.33;;
24407;SDS011;12542;50.924;4.516;2023-03-18T17:03:25;3.80;;;0.95;;
24407;SDS011;12542;50.924;4.516;2023-03-18T17:05:51;4.53;;;1.17;;
24407;SDS011;12542;50.924;4.516;2023-03-18T17:08:18;6.53;;;1.35;;